Lakes of Four Seasons, Indiana
Current Conditions -  °F | °C
As of 5:35 PM on Monday 20 Oct 2014 (Local Time) from KIGQ Reporting Station
Overcast Overcast  
Wind Chill: 55°   Ceiling: 4300
Heat Index: 55°   Visibility: 10mi
Dew Point: 49°   Wind: 12mph
Humidity: 80%   Direction: 360°N
Pressure: 29.93"   Gusts: 17mph
Location:  41.4039°N, 87.3294°W
Report Text: KIGQ 202235Z AUTO 36010G15KT 10SM SCT016 OVC043 13/09 A2993 RMK AO2 T01270093
Loading
Personal Weather Stations






























Interactive Weather Map
Tropical Storm Tracking
New forecast layout! Learn more

10-Day Weather Forecast

Advertisements
Track Severe Weather on mobile